Time;durP1;ratioP1;P1;durP2;ratioP2;P2;SDS_P1;SDS_P2;PMS_P1;PMS_P2;Temp;Humidity;BMP_temperature;BMP_pressure;BME280_temperature;BME280_humidity;BME280_pressure;Samples;Min_cycle;Max_cycle;Signal;HPM_P1;HPM_P2
2023/02/14 00:02:33;;;;;;;104.23;43.27;;;1.40;99.90;;;;;;4823575;29;20204;-63
2023/02/14 00:05:40;;;;;;;119.33;49.37;;;1.40;99.90;;;;;;4819016;29;20267;-62
2023/02/14 00:08:46;;;;;;;159.97;58.97;;;1.30;99.90;;;;;;4813190;29;20783;-63
2023/02/14 00:11:56;;;;;;;148.73;58.07;;;1.40;99.90;;;;;;4817168;29;20783;-62
2023/02/14 00:19:02;;;;;;;105.40;44.77;;;1.40;99.90;;;;;;4813173;29;20277;-63
2023/02/14 00:21:53;;;;;;;94.50;38.93;;;1.30;99.90;;;;;;4812990;29;20687;-62
2023/02/14 00:24:58;;;;;;;85.77;38.10;;;1.20;99.90;;;;;;4817376;29;20752;-63
2023/02/14 00:28:06;;;;;;;82.77;38.10;;;1.20;99.90;;;;;;4815641;29;20236;-62
2023/02/14 00:31:12;;;;;;;87.43;38.90;;;1.10;99.90;;;;;;4821472;29;20252;-63
2023/02/14 00:34:19;;;;;;;94.20;40.93;;;1.10;99.90;;;;;;4821433;29;20319;-63
2023/02/14 00:37:25;;;;;;;89.53;39.90;;;1.10;99.90;;;;;;4821737;29;20212;-63
2023/02/14 00:40:32;;;;;;;96.93;41.97;;;1.10;99.90;;;;;;4819138;29;20354;-62
2023/02/14 00:43:38;;;;;;;86.40;38.87;;;1.00;99.90;;;;;;4816988;29;20363;-63
2023/02/14 00:46:44;;;;;;;88.37;40.00;;;1.00;99.90;;;;;;4821497;29;20372;-63
2023/02/14 00:49:50;;;;;;;84.53;39.07;;;0.90;99.90;;;;;;4821195;29;20905;-63
2023/02/14 00:52:56;;;;;;;89.43;39.47;;;0.90;99.90;;;;;;4820201;29;20278;-62
2023/02/14 00:56:02;;;;;;;97.57;43.00;;;0.90;99.90;;;;;;4820956;29;20324;-62
2023/02/14 00:59:11;;;;;;;117.10;48.33;;;1.10;99.90;;;;;;4816084;29;20224;-62
2023/02/14 01:02:17;;;;;;;110.43;45.93;;;1.30;99.90;;;;;;4821795;29;20212;-63
2023/02/14 01:05:23;;;;;;;114.80;48.40;;;1.60;99.90;;;;;;4820706;29;20220;-62
2023/02/14 01:08:29;;;;;;;119.17;50.13;;;1.70;99.90;;;;;;4820427;29;20244;-63
2023/02/14 01:11:35;;;;;;;104.40;46.50;;;1.70;99.90;;;;;;4815484;29;20204;-63
2023/02/14 01:14:42;;;;;;;106.57;46.27;;;1.60;99.90;;;;;;4817005;29;20219;-62
2023/02/14 01:17:48;;;;;;;111.10;46.20;;;1.40;99.90;;;;;;4813219;29;20292;-62
2023/02/14 01:20:54;;;;;;;100.20;44.33;;;1.20;99.90;;;;;;4819450;29;21395;-62
2023/02/14 01:24:02;;;;;;;104.93;43.90;;;1.10;99.90;;;;;;4816702;29;20212;-63
2023/02/14 01:27:08;;;;;;;99.40;43.17;;;1.00;99.90;;;;;;4815264;29;20232;-60
2023/02/14 01:30:17;;;;;;;110.93;45.57;;;0.80;99.90;;;;;;4821351;29;20249;-63
2023/02/14 01:33:23;;;;;;;115.13;48.63;;;0.80;99.90;;;;;;4817807;29;20735;-62
2023/02/14 01:36:32;;;;;;;110.27;44.37;;;0.70;99.90;;;;;;4814884;29;20279;-62
2023/02/14 01:39:38;;;;;;;100.90;44.37;;;0.70;99.90;;;;;;4820818;29;20207;-62
2023/02/14 01:42:44;;;;;;;109.80;42.93;;;0.70;99.90;;;;;;4820583;29;20267;-62
2023/02/14 01:45:51;;;;;;;116.27;44.90;;;0.70;99.90;;;;;;4819979;29;20276;-62
2023/02/14 01:49:03;;;;;;;115.17;46.93;;;0.80;99.90;;;;;;4821294;29;20734;-62
2023/02/14 01:52:14;;;;;;;107.07;44.83;;;1.00;99.90;;;;;;4819214;29;20351;-62
2023/02/14 01:55:22;;;;;;;119.90;46.13;;;1.00;99.90;;;;;;4817652;29;20296;-62
2023/02/14 01:58:33;;;;;;;131.97;49.63;;;1.00;99.90;;;;;;4808780;29;20240;-62
2023/02/14 02:01:42;;;;;;;119.27;46.40;;;1.00;99.90;;;;;;4813363;29;20239;-62
2023/02/14 02:04:51;;;;;;;124.97;49.63;;;1.00;99.90;;;;;;4820213;29;20280;-62
2023/02/14 02:08:00;;;;;;;121.67;47.03;;;1.00;99.90;;;;;;4815954;29;20223;-62
2023/02/14 02:11:05;;;;;;;119.70;46.07;;;1.00;99.90;;;;;;4814189;29;20204;-63
2023/02/14 02:14:14;;;;;;;125.27;50.30;;;0.90;99.90;;;;;;4819964;29;20289;-62
2023/02/14 02:17:28;;;;;;;126.93;49.20;;;0.90;99.90;;;;;;4815581;29;20216;-62
2023/02/14 02:21:09;;;;;;;126.17;48.83;;;0.90;99.90;;;;;;4815783;29;20259;-62
2023/02/14 02:24:23;;;;;;;119.90;48.10;;;1.00;99.90;;;;;;4818630;29;20212;-62
2023/02/14 02:28:00;;;;;;;123.07;49.10;;;0.90;99.90;;;;;;4819446;29;20257;-63
2023/02/14 02:31:32;;;;;;;118.57;48.93;;;0.90;99.90;;;;;;4822312;29;20363;-62
2023/02/14 02:35:12;;;;;;;120.87;47.83;;;0.80;99.90;;;;;;4821924;29;20284;-62
2023/02/14 02:38:35;;;;;;;139.10;48.43;;;0.60;99.90;;;;;;4819654;29;20238;-62
2023/02/14 02:41:50;;;;;;;125.00;47.00;;;0.70;99.90;;;;;;4820214;29;20262;-62
2023/02/14 02:45:06;;;;;;;122.70;47.73;;;0.80;99.90;;;;;;4820672;29;20208;-62
2023/02/14 02:48:19;;;;;;;122.43;48.13;;;0.80;99.90;;;;;;4820579;29;20552;-62
2023/02/14 02:55:00;;;;;;;117.47;45.93;;;0.80;99.90;;;;;;4821853;29;20286;-62
2023/02/14 02:58:06;;;;;;;107.23;44.73;;;0.70;99.90;;;;;;4821796;29;20695;-62
2023/02/14 03:01:17;;;;;;;108.50;45.43;;;0.50;99.90;;;;;;4819479;29;20757;-62
2023/02/14 03:07:49;;;;;;;115.57;45.93;;;0.40;99.90;;;;;;4818434;29;20680;-62
2023/02/14 03:10:55;;;;;;;112.77;43.97;;;0.30;99.90;;;;;;4820925;29;20208;-62
2023/02/14 03:14:15;;;;;;;119.33;47.00;;;0.30;99.90;;;;;;4821663;29;20244;-62
2023/02/14 03:20:55;;;;;;;117.50;46.33;;;0.20;99.90;;;;;;4819488;29;20568;-62
2023/02/14 03:24:09;;;;;;;119.53;44.63;;;0.20;99.90;;;;;;4816454;29;20298;-62
2023/02/14 03:27:21;;;;;;;120.43;44.50;;;0.10;99.90;;;;;;4824089;29;20219;-62
2023/02/14 03:30:35;;;;;;;146.53;45.37;;;0.10;99.90;;;;;;4820216;29;20333;-62
2023/02/14 03:33:48;;;;;;;109.10;43.07;;;0.20;99.90;;;;;;4823424;29;20214;-63
2023/02/14 03:37:00;;;;;;;101.47;41.47;;;0.30;99.90;;;;;;4818401;29;20288;-63
2023/02/14 03:40:13;;;;;;;114.57;44.40;;;0.30;99.90;;;;;;4819364;29;20211;-62
2023/02/14 03:43:24;;;;;;;106.50;43.93;;;0.20;99.90;;;;;;4820743;29;20212;-62
2023/02/14 03:46:34;;;;;;;107.60;43.77;;;0.10;99.90;;;;;;4820742;29;20618;-62
2023/02/14 03:49:46;;;;;;;106.87;43.80;;;0.00;99.90;;;;;;4823286;29;20212;-62
2023/02/14 03:52:54;;;;;;;106.27;42.83;;;-0.10;99.90;;;;;;4816267;29;20240;-62
2023/02/14 03:56:08;;;;;;;102.73;42.47;;;0.00;99.90;;;;;;4812537;29;20388;-62
2023/02/14 03:59:16;;;;;;;103.67;43.03;;;0.00;99.90;;;;;;4824112;29;20267;-62
2023/02/14 04:02:29;;;;;;;112.73;43.53;;;0.00;99.90;;;;;;4817018;29;20230;-63
2023/02/14 04:05:34;;;;;;;115.37;44.93;;;0.20;99.90;;;;;;4821797;29;20232;-62
2023/02/14 04:08:42;;;;;;;125.83;47.17;;;0.20;99.90;;;;;;4816607;29;20261;-62
2023/02/14 04:11:50;;;;;;;141.43;48.97;;;0.40;99.90;;;;;;4821344;29;20208;-63
2023/02/14 04:14:56;;;;;;;126.40;48.17;;;0.50;99.90;;;;;;4818293;29;20236;-63
2023/02/14 04:21:33;;;;;;;135.90;48.43;;;0.80;99.90;;;;;;4803090;29;20259;-62
2023/02/14 04:24:39;;;;;;;133.67;50.07;;;1.00;99.90;;;;;;4818840;29;20239;-63
2023/02/14 04:27:46;;;;;;;141.93;50.33;;;1.30;99.90;;;;;;4810520;29;20204;-63
2023/02/14 04:30:52;;;;;;;134.60;49.47;;;1.40;99.90;;;;;;4820058;29;20264;-63
2023/02/14 04:33:57;;;;;;;133.50;50.03;;;1.50;99.90;;;;;;4815251;29;20355;-62
2023/02/14 04:37:04;;;;;;;145.37;50.40;;;1.50;99.90;;;;;;4819949;29;20247;-63
2023/02/14 04:40:10;;;;;;;147.77;51.27;;;1.50;99.90;;;;;;4820262;29;20421;-63
2023/02/14 04:43:17;;;;;;;137.77;50.20;;;1.50;99.90;;;;;;4818046;29;20215;-62
2023/02/14 04:46:23;;;;;;;135.47;50.70;;;1.50;99.90;;;;;;4817925;29;20357;-62
2023/02/14 04:49:29;;;;;;;145.33;49.43;;;1.50;99.90;;;;;;4819743;29;20203;-62
2023/02/14 04:52:34;;;;;;;130.10;48.53;;;1.60;99.90;;;;;;4822829;29;20731;-62
2023/02/14 04:55:41;;;;;;;140.80;50.43;;;1.60;99.90;;;;;;4819655;29;20795;-62
2023/02/14 04:58:48;;;;;;;140.87;48.67;;;1.60;99.90;;;;;;4819817;29;20200;-63
2023/02/14 05:01:53;;;;;;;143.07;50.93;;;1.60;99.90;;;;;;4817454;29;20331;-62
2023/02/14 05:05:02;;;;;;;136.03;48.40;;;1.60;99.90;;;;;;4816049;29;20357;-63
2023/02/14 05:08:08;;;;;;;144.50;48.77;;;1.60;99.90;;;;;;4817260;29;20224;-63
2023/02/14 05:11:14;;;;;;;127.47;47.63;;;1.60;99.90;;;;;;4818835;29;20626;-63
2023/02/14 05:14:21;;;;;;;160.03;50.40;;;1.50;99.90;;;;;;4823533;29;20280;-62
2023/02/14 05:17:27;;;;;;;132.80;49.93;;;1.50;99.90;;;;;;4814101;29;20232;-63
2023/02/14 05:20:33;;;;;;;129.23;47.77;;;1.50;99.90;;;;;;4819554;29;20248;-63
2023/02/14 05:23:39;;;;;;;136.17;46.70;;;1.50;99.90;;;;;;4817687;29;20944;-62
2023/02/14 05:26:45;;;;;;;141.27;49.87;;;1.50;99.90;;;;;;4819372;29;20257;-63
2023/02/14 05:29:52;;;;;;;131.90;46.43;;;1.30;99.90;;;;;;4818132;29;20354;-63
2023/02/14 05:33:00;;;;;;;125.87;45.10;;;1.30;99.90;;;;;;4817052;29;20249;-63
2023/02/14 05:36:06;;;;;;;130.13;45.80;;;1.20;99.90;;;;;;4820756;29;20940;-63
2023/02/14 05:39:13;;;;;;;119.40;43.63;;;1.20;99.90;;;;;;4817257;29;20256;-63
2023/02/14 05:42:19;;;;;;;138.43;46.37;;;1.10;99.90;;;;;;4817187;29;20802;-61
2023/02/14 05:45:26;;;;;;;130.40;45.60;;;1.10;99.90;;;;;;4817867;29;21301;-63
2023/02/14 05:48:33;;;;;;;117.93;44.77;;;1.10;99.90;;;;;;4818299;29;20687;-62
2023/02/14 05:51:39;;;;;;;125.63;44.70;;;1.10;99.90;;;;;;4820878;29;20254;-63
2023/02/14 05:54:45;;;;;;;124.27;45.50;;;1.10;99.90;;;;;;4814836;29;20576;-62
2023/02/14 05:57:51;;;;;;;121.03;44.17;;;1.30;99.90;;;;;;4820852;29;20240;-62
2023/02/14 06:00:58;;;;;;;127.87;45.37;;;1.40;99.90;;;;;;4815556;29;20239;-63
2023/02/14 06:04:04;;;;;;;127.20;45.63;;;1.50;99.90;;;;;;4817506;29;20703;-62
2023/02/14 06:07:11;;;;;;;120.93;44.70;;;1.40;99.90;;;;;;4817662;29;20633;-62
2023/02/14 06:10:17;;;;;;;123.43;45.63;;;1.30;99.90;;;;;;4821281;29;20231;-62
2023/02/14 06:13:23;;;;;;;134.40;45.07;;;1.30;99.90;;;;;;4816468;29;20212;-62
2023/02/14 06:16:31;;;;;;;130.83;44.13;;;1.30;99.90;;;;;;4817966;29;20344;-62
2023/02/14 06:19:37;;;;;;;122.67;44.63;;;1.30;99.90;;;;;;4818154;29;20601;-62
2023/02/14 06:22:43;;;;;;;135.43;46.00;;;1.40;99.90;;;;;;4816531;29;20231;-62
2023/02/14 06:25:49;;;;;;;124.57;44.57;;;1.30;99.90;;;;;;4810907;29;20212;-62
2023/02/14 06:28:56;;;;;;;136.10;47.20;;;1.40;99.90;;;;;;4817522;29;20196;-63
2023/02/14 06:32:05;;;;;;;126.90;44.57;;;1.30;99.90;;;;;;4821195;29;20235;-62
2023/02/14 06:35:12;;;;;;;112.20;42.83;;;1.30;99.90;;;;;;4821489;29;20212;-62
2023/02/14 06:38:18;;;;;;;111.93;41.00;;;1.20;99.90;;;;;;4824370;29;20288;-62
2023/02/14 06:41:24;;;;;;;111.87;41.97;;;1.10;99.90;;;;;;4817320;29;20843;-62
2023/02/14 06:44:30;;;;;;;111.80;41.83;;;1.00;99.90;;;;;;4819945;29;20247;-62
2023/02/14 06:47:37;;;;;;;127.03;44.83;;;0.90;99.90;;;;;;4818039;29;20743;-62
2023/02/14 06:50:43;;;;;;;122.10;44.93;;;0.80;99.90;;;;;;4820987;29;20208;-62
2023/02/14 06:53:49;;;;;;;125.73;44.83;;;0.80;99.90;;;;;;4820304;29;20300;-62
2023/02/14 06:56:55;;;;;;;125.53;43.97;;;0.80;99.90;;;;;;4818466;29;20243;-63
2023/02/14 07:00:01;;;;;;;135.13;45.27;;;0.80;99.90;;;;;;4815444;29;20268;-61
2023/02/14 07:03:08;;;;;;;125.77;43.70;;;0.80;99.90;;;;;;4821009;29;20284;-62
2023/02/14 07:06:14;;;;;;;133.43;44.10;;;0.80;99.90;;;;;;4816805;29;20220;-62
2023/02/14 07:09:20;;;;;;;113.00;41.80;;;0.80;99.90;;;;;;4816519;29;20240;-62
2023/02/14 07:12:26;;;;;;;121.77;43.20;;;0.70;99.90;;;;;;4823665;29;20255;-62
2023/02/14 07:15:32;;;;;;;109.03;40.87;;;0.60;99.90;;;;;;4817498;29;20224;-62
2023/02/14 07:18:39;;;;;;;123.93;42.00;;;0.50;99.90;;;;;;4822763;29;20296;-62
2023/02/14 07:21:45;;;;;;;113.90;41.87;;;0.50;99.90;;;;;;4816424;29;20259;-62
2023/02/14 07:24:51;;;;;;;130.23;44.33;;;0.50;99.90;;;;;;4815629;29;20764;-62
2023/02/14 07:27:57;;;;;;;118.67;44.90;;;0.50;99.90;;;;;;4821275;29;20200;-62
2023/02/14 07:31:03;;;;;;;129.87;45.40;;;0.50;99.90;;;;;;4822563;29;20280;-62
2023/02/14 07:34:11;;;;;;;127.33;43.43;;;0.50;99.90;;;;;;4812072;29;20209;-62
2023/02/14 07:37:17;;;;;;;121.27;44.57;;;0.60;99.90;;;;;;4818599;29;20232;-62
2023/02/14 07:40:24;;;;;;;130.90;44.17;;;0.60;99.90;;;;;;4813386;29;20256;-62
2023/02/14 07:43:32;;;;;;;130.20;46.00;;;0.70;99.90;;;;;;4812904;29;20245;-62
2023/02/14 07:46:38;;;;;;;125.27;44.33;;;0.80;99.90;;;;;;4822561;29;20231;-62
2023/02/14 07:49:45;;;;;;;133.27;46.50;;;1.00;99.90;;;;;;4822049;29;20199;-62
2023/02/14 07:52:51;;;;;;;139.20;47.93;;;1.10;99.90;;;;;;4821376;29;20642;-62
2023/02/14 07:55:57;;;;;;;135.37;46.33;;;1.40;99.90;;;;;;4822427;29;20279;-62
2023/02/14 07:59:03;;;;;;;135.97;48.30;;;1.60;99.90;;;;;;4822272;29;20220;-62
2023/02/14 08:02:10;;;;;;;128.70;46.73;;;1.80;99.90;;;;;;4820825;29;20297;-62
2023/02/14 08:05:18;;;;;;;132.40;46.83;;;2.00;99.90;;;;;;4826053;29;20260;-62
2023/02/14 08:08:26;;;;;;;134.00;46.47;;;2.20;99.90;;;;;;4822515;29;20264;-63
2023/02/14 08:16:03;;;;;;;119.97;46.30;;;2.70;99.90;;;;;;4811865;29;20280;-62
2023/02/14 08:18:23;;;;;;;123.50;46.17;;;2.80;99.90;;;;;;4818204;29;20228;-63
2023/02/14 08:21:30;;;;;;;125.47;47.80;;;3.00;99.90;;;;;;4829095;29;20203;-63
2023/02/14 08:24:36;;;;;;;125.20;47.30;;;3.10;99.90;;;;;;4824670;29;20592;-62
2023/02/14 08:27:42;;;;;;;117.97;46.93;;;3.30;99.90;;;;;;4824734;29;20671;-62
2023/02/14 08:30:49;;;;;;;122.13;46.07;;;3.40;99.90;;;;;;4821670;29;20224;-63
2023/02/14 08:33:55;;;;;;;125.97;48.10;;;3.60;99.90;;;;;;4821697;29;20208;-63
2023/02/14 08:37:02;;;;;;;116.97;45.10;;;3.70;99.90;;;;;;4823268;29;20559;-63
2023/02/14 08:40:09;;;;;;;94.90;41.70;;;4.00;99.90;;;;;;4819876;29;20576;-62
2023/02/14 08:43:15;;;;;;;104.40;42.93;;;4.40;99.90;;;;;;4819162;29;20212;-62
2023/02/14 08:46:21;;;;;;;94.00;41.60;;;4.70;99.90;;;;;;4820433;29;20329;-63
2023/02/14 08:49:27;;;;;;;90.33;40.00;;;4.90;99.90;;;;;;4821384;29;20257;-63
2023/02/14 08:52:35;;;;;;;92.37;39.57;;;5.20;99.90;;;;;;4822974;29;20220;-62
2023/02/14 08:55:41;;;;;;;77.37;35.83;;;5.40;99.90;;;;;;4830943;29;20247;-63
2023/02/14 08:58:46;;;;;;;70.57;33.97;;;5.50;99.90;;;;;;4827225;29;20260;-63
2023/02/14 09:01:52;;;;;;;69.40;32.57;;;5.70;99.90;;;;;;4817753;29;20771;-62
2023/02/14 09:04:58;;;;;;;57.70;29.50;;;5.80;99.90;;;;;;4830417;29;20215;-62
2023/02/14 09:08:06;;;;;;;57.10;28.53;;;6.00;99.90;;;;;;4823563;29;20219;-62
2023/02/14 09:11:14;;;;;;;50.97;26.80;;;6.20;99.90;;;;;;4825300;29;20709;-63
2023/02/14 09:14:21;;;;;;;48.50;26.37;;;6.30;99.90;;;;;;4824236;29;20257;-62
2023/02/14 09:17:27;;;;;;;51.57;25.93;;;6.60;99.90;;;;;;4824083;29;20227;-62
2023/02/14 09:20:33;;;;;;;44.70;24.27;;;6.70;99.90;;;;;;4821401;29;20208;-63
2023/02/14 09:23:41;;;;;;;43.37;24.33;;;6.90;99.90;;;;;;4826303;29;20219;-63
2023/02/14 09:26:46;;;;;;;53.40;25.70;;;7.10;99.90;;;;;;4824134;29;20264;-62
2023/02/14 09:29:53;;;;;;;46.50;23.87;;;7.30;99.90;;;;;;4828168;29;20247;-63
2023/02/14 09:32:59;;;;;;;44.93;24.23;;;7.40;99.90;;;;;;4819618;29;20284;-63
2023/02/14 09:36:20;;;;;;;46.00;24.40;;;7.60;99.90;;;;;;4818307;29;20208;-62
2023/02/14 09:39:27;;;;;;;43.47;24.10;;;7.90;99.90;;;;;;4824197;29;20239;-63
2023/02/14 09:42:44;;;;;;;40.20;23.80;;;8.20;99.90;;;;;;4828064;29;20200;-63
2023/02/14 09:45:54;;;;;;;44.00;23.53;;;8.60;99.90;;;;;;4829619;29;20740;-63
2023/02/14 09:49:01;;;;;;;40.23;22.43;;;8.80;99.90;;;;;;4822636;29;20304;-63
2023/02/14 09:52:13;;;;;;;43.03;23.50;;;9.00;99.90;;;;;;4813008;29;20708;-63
2023/02/14 09:55:25;;;;;;;45.23;24.40;;;9.20;99.90;;;;;;4831131;29;20246;-62
2023/02/14 09:58:36;;;;;;;48.97;24.57;;;9.30;99.90;;;;;;4828149;29;20738;-62
2023/02/14 10:01:46;;;;;;;43.10;24.30;;;9.50;99.90;;;;;;4828277;29;20351;-63
2023/02/14 10:05:01;;;;;;;40.27;23.07;;;9.60;99.90;;;;;;4828161;29;20248;-62
2023/02/14 10:08:21;;;;;;;41.70;23.37;;;10.00;99.90;;;;;;4833312;29;20251;-63
2023/02/14 10:11:29;;;;;;;39.30;23.40;;;10.30;99.90;;;;;;4827516;29;20782;-63
2023/02/14 10:14:39;;;;;;;41.73;24.27;;;10.50;99.90;;;;;;4828136;29;20848;-62
2023/02/14 10:17:51;;;;;;;39.93;23.37;;;10.80;99.90;;;;;;4823486;29;20241;-63
2023/02/14 10:20:59;;;;;;;42.63;23.83;;;11.10;99.90;;;;;;4828828;29;20707;-63
2023/02/14 10:24:16;;;;;;;37.73;23.17;;;11.30;99.90;;;;;;4830051;29;20278;-62
2023/02/14 10:27:31;;;;;;;41.93;24.93;;;11.60;99.90;;;;;;4832825;29;20243;-63
2023/02/14 10:30:39;;;;;;;42.50;23.37;;;11.70;99.90;;;;;;4821930;29;20204;-63
2023/02/14 10:33:52;;;;;;;42.73;24.50;;;12.00;99.90;;;;;;4823437;29;20280;-63
2023/02/14 10:37:32;;;;;;;41.10;23.07;;;12.00;99.90;;;;;;4822536;29;20230;-64
2023/02/14 10:40:57;;;;;;;40.57;23.60;;;12.10;99.90;;;;;;4820852;29;20243;-62
2023/02/14 10:44:18;;;;;;;37.83;23.03;;;12.30;99.90;;;;;;4826079;29;20197;-63
2023/02/14 10:47:43;;;;;;;39.33;23.30;;;12.50;99.90;;;;;;4827594;29;20281;-63
2023/02/14 10:50:57;;;;;;;39.40;23.40;;;12.50;99.90;;;;;;4826938;29;20221;-63
2023/02/14 10:54:18;;;;;;;43.17;23.63;;;12.60;99.90;;;;;;4820981;29;20267;-63
2023/02/14 10:57:30;;;;;;;43.77;24.40;;;12.50;99.90;;;;;;4809771;29;20277;-63
2023/02/14 11:00:41;;;;;;;39.00;24.07;;;12.50;99.90;;;;;;4816482;29;20231;-63
2023/02/14 11:03:53;;;;;;;42.23;23.60;;;12.60;99.90;;;;;;4800923;29;20367;-63
2023/02/14 11:06:59;;;;;;;39.63;23.70;;;12.60;99.90;;;;;;4807002;29;20209;-63
2023/02/14 11:10:11;;;;;;;44.17;24.20;;;12.90;99.90;;;;;;4798254;29;20287;-63
2023/02/14 11:13:32;;;;;;;40.30;24.87;;;12.80;99.90;;;;;;4806162;29;20252;-63
2023/02/14 11:16:40;;;;;;;40.27;23.40;;;12.90;99.90;;;;;;4802164;29;20198;-63
2023/02/14 11:19:57;;;;;;;41.97;24.70;;;12.90;99.90;;;;;;4798905;29;20225;-64
2023/02/14 11:23:18;;;;;;;43.43;25.07;;;13.00;99.90;;;;;;4798985;29;20242;-63
2023/02/14 11:26:27;;;;;;;45.03;25.70;;;13.00;99.90;;;;;;4804370;29;20245;-63
2023/02/14 11:29:42;;;;;;;38.17;23.83;;;13.10;99.90;;;;;;4803537;29;20281;-64
2023/02/14 11:32:54;;;;;;;39.83;24.73;;;13.30;99.90;;;;;;4799133;29;20775;-64
2023/02/14 11:36:01;;;;;;;40.37;24.17;;;13.50;99.90;;;;;;4800079;29;20219;-63
2023/02/14 11:39:22;;;;;;;41.70;24.20;;;13.80;99.90;;;;;;4806023;29;20285;-64
2023/02/14 11:42:40;;;;;;;39.63;22.90;;;14.00;99.90;;;;;;4798289;29;20253;-63
2023/02/14 11:45:47;;;;;;;40.03;24.67;;;14.10;99.90;;;;;;4797037;29;20230;-64
2023/02/14 11:49:00;;;;;;;39.33;23.77;;;14.30;99.90;;;;;;4802671;29;20289;-63
2023/02/14 11:52:11;;;;;;;37.77;23.37;;;14.50;99.90;;;;;;4799904;29;20213;-64
2023/02/14 11:55:26;;;;;;;37.60;23.63;;;14.70;99.90;;;;;;4810385;29;20240;-61
2023/02/14 11:58:35;;;;;;;42.60;23.73;;;15.00;99.90;;;;;;4823615;29;20742;-61
2023/02/14 12:01:46;;;;;;;37.33;24.40;;;15.30;99.90;;;;;;4819456;29;20231;-64
2023/02/14 12:04:56;;;;;;;38.57;24.10;;;15.60;99.90;;;;;;4817622;29;20308;-64
2023/02/14 12:08:07;;;;;;;39.63;24.30;;;15.80;99.90;;;;;;4824430;29;20213;-65
2023/02/14 12:11:20;;;;;;;40.87;24.53;;;15.80;99.90;;;;;;4819707;29;20288;-63
2023/02/14 12:14:29;;;;;;;41.63;25.10;;;15.70;99.90;;;;;;4820209;29;20220;-65
2023/02/14 12:17:39;;;;;;;36.30;23.93;;;15.70;99.90;;;;;;4815551;29;20246;-63
2023/02/14 12:20:53;;;;;;;39.37;24.60;;;15.50;99.90;;;;;;4825474;29;20296;-63
2023/02/14 12:24:05;;;;;;;40.67;25.23;;;15.80;99.90;;;;;;4825960;29;20728;-64
2023/02/14 12:27:20;;;;;;;42.00;25.47;;;15.70;99.90;;;;;;4821494;29;20748;-64
2023/02/14 12:30:34;;;;;;;38.77;24.83;;;15.70;99.90;;;;;;4824650;29;20204;-64
2023/02/14 12:33:41;;;;;;;44.70;24.57;;;15.80;99.90;;;;;;4827964;29;20312;-64
2023/02/14 12:37:07;;;;;;;41.47;24.97;;;15.80;99.90;;;;;;4826595;29;20269;-63
2023/02/14 12:40:21;;;;;;;40.07;24.47;;;15.80;99.90;;;;;;4828839;29;20854;-64
2023/02/14 12:43:49;;;;;;;41.93;24.57;;;15.80;99.90;;;;;;4828087;29;20726;-62
2023/02/14 12:47:07;;;;;;;38.33;24.73;;;15.90;99.90;;;;;;4829520;29;20245;-62
2023/02/14 12:50:28;;;;;;;38.87;25.77;;;15.70;99.90;;;;;;4822337;29;20634;-62
2023/02/14 12:53:51;;;;;;;41.47;24.50;;;15.70;99.90;;;;;;4815851;29;20208;-62
2023/02/14 12:57:04;;;;;;;44.83;25.20;;;15.70;99.90;;;;;;4821552;29;20270;-62
2023/02/14 13:00:25;;;;;;;39.63;25.00;;;15.70;99.90;;;;;;4821847;29;20219;-62
2023/02/14 13:04:03;;;;;;;44.03;25.33;;;15.70;99.90;;;;;;4827271;29;20227;-62
2023/02/14 13:07:20;;;;;;;42.53;25.83;;;15.60;99.90;;;;;;4828752;29;20208;-62
2023/02/14 13:10:41;;;;;;;42.20;24.90;;;15.50;99.90;;;;;;4818684;29;20630;-62
2023/02/14 13:13:56;;;;;;;41.00;24.53;;;15.70;99.90;;;;;;4819792;29;20241;-61
2023/02/14 13:17:08;;;;;;;39.63;25.03;;;15.80;99.90;;;;;;4827064;29;20206;-62
2023/02/14 13:20:37;;;;;;;38.87;24.40;;;15.60;99.90;;;;;;4825134;29;20600;-62
2023/02/14 13:23:46;;;;;;;44.60;26.13;;;15.60;99.90;;;;;;4823186;29;20723;-61
2023/02/14 13:26:58;;;;;;;42.30;25.67;;;15.60;99.90;;;;;;4820681;29;20231;-61
2023/02/14 13:30:13;;;;;;;47.37;25.80;;;15.60;99.90;;;;;;4821360;29;20260;-62
2023/02/14 13:33:27;;;;;;;42.73;25.80;;;15.50;99.90;;;;;;4821782;29;20237;-61
2023/02/14 13:36:34;;;;;;;41.03;25.17;;;15.50;99.90;;;;;;4815588;29;20211;-61
2023/02/14 13:39:45;;;;;;;45.23;25.83;;;15.40;99.90;;;;;;4817624;29;20228;-61
2023/02/14 13:42:55;;;;;;;41.63;25.07;;;15.30;99.90;;;;;;4816385;29;20297;-62
2023/02/14 13:46:01;;;;;;;42.13;24.40;;;15.30;99.90;;;;;;4821535;29;20556;-62
2023/02/14 13:49:23;;;;;;;41.47;24.93;;;15.10;99.90;;;;;;4816848;29;20223;-62
2023/02/14 13:52:44;;;;;;;44.70;24.47;;;15.00;99.90;;;;;;4821031;29;20281;-61
2023/02/14 13:55:54;;;;;;;41.53;23.80;;;14.90;99.90;;;;;;4820515;29;20275;-62
2023/02/14 13:59:05;;;;;;;45.27;25.87;;;14.90;99.90;;;;;;4814004;29;20261;-61
2023/02/14 14:02:31;;;;;;;42.80;24.47;;;14.90;99.90;;;;;;4818641;29;20699;-62
2023/02/14 14:06:03;;;;;;;44.70;25.63;;;14.70;99.90;;;;;;4819817;29;20292;-61
2023/02/14 14:09:10;;;;;;;44.20;25.50;;;14.70;99.90;;;;;;4818117;29;20216;-62
2023/02/14 14:12:43;;;;;;;42.17;23.70;;;14.70;99.90;;;;;;4818983;29;20273;-62
2023/02/14 14:16:26;;;;;;;46.60;25.13;;;14.70;99.90;;;;;;4821058;29;20576;-62
2023/02/14 14:19:40;;;;;;;50.30;26.47;;;14.70;99.90;;;;;;4812125;29;20338;-62
2023/02/14 14:22:47;;;;;;;45.40;25.27;;;14.70;99.90;;;;;;4821635;29;20253;-62
2023/02/14 14:25:54;;;;;;;42.90;24.17;;;14.80;99.90;;;;;;4819079;29;20447;-61
2023/02/14 14:29:00;;;;;;;43.77;25.27;;;14.80;99.90;;;;;;4817944;29;20232;-61
2023/02/14 14:32:14;;;;;;;45.03;25.83;;;14.80;99.90;;;;;;4819986;29;20261;-62
2023/02/14 14:35:23;;;;;;;43.83;26.10;;;14.80;99.90;;;;;;4818596;29;20242;-61
2023/02/14 14:38:30;;;;;;;45.67;26.23;;;14.90;99.90;;;;;;4818720;29;20268;-62
2023/02/14 14:41:36;;;;;;;45.63;26.53;;;14.80;99.90;;;;;;4821923;29;20241;-62
2023/02/14 14:44:47;;;;;;;44.27;25.63;;;14.80;99.90;;;;;;4820358;29;20738;-61
2023/02/14 14:47:58;;;;;;;44.93;26.73;;;14.70;99.90;;;;;;4819933;29;20225;-62
2023/02/14 14:51:05;;;;;;;44.23;25.73;;;14.70;99.90;;;;;;4822112;29;20254;-61
2023/02/14 14:54:16;;;;;;;43.27;25.00;;;14.60;99.90;;;;;;4817441;29;20560;-62
2023/02/14 14:57:22;;;;;;;43.33;24.47;;;14.50;99.90;;;;;;4825271;29;20275;-61
2023/02/14 15:00:30;;;;;;;45.40;24.93;;;14.50;99.90;;;;;;4817744;29;20846;-61
2023/02/14 15:03:38;;;;;;;41.27;24.37;;;14.50;99.90;;;;;;4824461;29;20560;-61
2023/02/14 15:06:44;;;;;;;41.77;25.43;;;14.40;99.90;;;;;;4816690;29;20207;-62
2023/02/14 15:09:50;;;;;;;43.70;25.40;;;14.40;99.90;;;;;;4824860;29;20268;-61
2023/02/14 15:16:24;;;;;;;46.23;25.83;;;14.20;99.90;;;;;;4824478;29;20691;-61
2023/02/14 15:19:35;;;;;;;42.30;25.03;;;14.10;99.90;;;;;;4825091;29;20282;-62
2023/02/14 15:22:44;;;;;;;49.97;26.73;;;13.90;99.90;;;;;;4823806;29;20683;-61
2023/02/14 15:25:51;;;;;;;45.27;26.20;;;13.90;99.90;;;;;;4819383;29;20354;-62
2023/02/14 15:28:59;;;;;;;44.97;26.10;;;13.80;99.90;;;;;;4818486;29;20247;-62
2023/02/14 15:32:05;;;;;;;47.77;26.60;;;13.70;99.90;;;;;;4822215;29;20268;-61
2023/02/14 15:35:16;;;;;;;47.10;26.50;;;13.60;99.90;;;;;;4818946;29;20268;-62
2023/02/14 15:38:23;;;;;;;41.57;24.23;;;13.50;99.90;;;;;;4823827;29;20216;-62
2023/02/14 15:41:29;;;;;;;45.10;25.17;;;13.40;99.90;;;;;;4817276;29;20246;-61
2023/02/14 15:44:34;;;;;;;47.13;26.37;;;13.30;99.90;;;;;;4818419;29;20262;-62
2023/02/14 15:47:40;;;;;;;45.37;26.83;;;13.20;99.90;;;;;;4817330;29;20337;-61
2023/02/14 15:50:51;;;;;;;47.87;25.80;;;13.10;99.90;;;;;;4827257;29;20236;-61
2023/02/14 15:54:00;;;;;;;47.47;25.57;;;13.00;99.90;;;;;;4817276;29;20212;-61
2023/02/14 15:57:16;;;;;;;48.53;26.53;;;12.90;99.90;;;;;;4826064;29;20295;-61
2023/02/14 16:00:24;;;;;;;44.90;25.97;;;12.90;99.90;;;;;;4826898;29;20232;-61
2023/02/14 16:03:34;;;;;;;46.47;25.93;;;12.80;99.90;;;;;;4814653;29;20238;-61
2023/02/14 16:06:47;;;;;;;44.40;26.50;;;12.70;99.90;;;;;;4814203;29;20248;-61
2023/02/14 16:10:23;;;;;;;48.40;26.97;;;12.60;99.90;;;;;;4822166;29;20238;-61
2023/02/14 16:13:34;;;;;;;50.07;27.87;;;12.50;99.90;;;;;;4824494;29;20232;-61
2023/02/14 16:17:01;;;;;;;46.10;26.53;;;12.40;99.90;;;;;;4823050;29;20220;-62
2023/02/14 16:20:45;;;;;;;48.20;26.10;;;12.30;99.90;;;;;;4815273;29;20243;-62
2023/02/14 16:24:14;;;;;;;45.80;24.80;;;12.10;99.90;;;;;;4818871;29;20212;-61
2023/02/14 16:27:20;;;;;;;51.97;27.47;;;11.90;99.90;;;;;;4812251;29;21112;-61
2023/02/14 16:30:26;;;;;;;51.47;28.40;;;11.80;99.90;;;;;;4817702;29;20235;-61
2023/02/14 16:33:34;;;;;;;49.37;27.57;;;11.70;99.90;;;;;;4819019;29;20329;-61